createdAt,value
2018-08-12T00:01:12.004Z,92.10
2018-08-12T00:03:44.984Z,92.50
2018-08-12T00:06:15.714Z,92.80
2018-08-12T00:08:47.806Z,92.90
2018-08-12T00:11:19.678Z,92.70
2018-08-12T00:13:51.450Z,93.00
2018-08-12T00:16:22.345Z,92.60
2018-08-12T00:18:54.350Z,93.10
2018-08-12T00:21:25.769Z,92.90
2018-08-12T00:24:01.836Z,93.20
2018-08-12T00:26:34.392Z,93.30
2018-08-12T00:29:05.716Z,93.40
2018-08-12T00:31:37.453Z,94.00
2018-08-12T00:34:08.666Z,94.30
2018-08-12T00:36:40.558Z,94.30
2018-08-12T00:39:13.946Z,94.20
2018-08-12T00:41:44.969Z,94.10
2018-08-12T00:44:15.543Z,93.60
2018-08-12T00:46:47.164Z,93.80
2018-08-12T00:49:18.186Z,94.00
2018-08-12T00:51:49.012Z,94.30
2018-08-12T00:54:21.093Z,94.20
2018-08-12T00:56:52.757Z,94.40
2018-08-12T00:59:25.319Z,94.70
2018-08-12T01:01:56.273Z,94.90
2018-08-12T01:04:28.367Z,94.20
2018-08-12T01:06:59.604Z,94.50
2018-08-12T01:09:31.576Z,95.10
2018-08-12T01:12:03.801Z,95.30
2018-08-12T01:14:35.091Z,94.70
2018-08-12T01:17:07.989Z,94.90
2018-08-12T01:19:39.381Z,95.30
2018-08-12T01:22:10.365Z,95.70
2018-08-12T01:24:42.718Z,95.70
2018-08-12T01:27:15.374Z,95.40
2018-08-12T01:29:47.354Z,95.70
2018-08-12T01:32:18.122Z,95.40
2018-08-12T01:34:49.438Z,95.60
2018-08-12T01:37:21.562Z,95.20
2018-08-12T01:39:53.733Z,96.10
2018-08-12T01:42:32.230Z,96.30
2018-08-12T01:45:02.807Z,96.70
2018-08-12T01:47:34.913Z,96.50
2018-08-12T01:50:06.618Z,96.60
2018-08-12T01:52:38.619Z,96.70
2018-08-12T01:55:10.184Z,96.50
2018-08-12T01:57:41.310Z,96.40
2018-08-12T02:00:16.793Z,96.40
2018-08-12T02:02:47.981Z,95.90
2018-08-12T02:05:19.647Z,95.80
2018-08-12T02:07:51.031Z,95.50
2018-08-12T02:10:22.480Z,95.90
2018-08-12T02:12:53.675Z,96.10
2018-08-12T02:15:24.826Z,96.80
2018-08-12T02:17:56.382Z,96.90
2018-08-12T02:20:28.161Z,96.00
2018-08-12T02:22:59.874Z,96.00
2018-08-12T02:25:31.885Z,96.00
2018-08-12T02:28:03.916Z,95.50
2018-08-12T02:30:35.030Z,95.60
2018-08-12T02:33:10.670Z,96.10
2018-08-12T02:35:42.196Z,96.50
2018-08-12T02:38:13.821Z,96.60
2018-08-12T02:40:44.836Z,96.40
2018-08-12T02:43:15.756Z,96.50
2018-08-12T02:45:46.756Z,96.90
2018-08-12T02:48:20.007Z,97.00
2018-08-12T02:50:51.096Z,97.10
2018-08-12T02:53:22.569Z,97.10
2018-08-12T02:55:53.997Z,96.90
2018-08-12T02:58:31.256Z,96.50
2018-08-12T03:01:02.414Z,96.10
2018-08-12T03:03:35.751Z,95.10
2018-08-12T03:06:07.155Z,95.40
2018-08-12T03:08:38.896Z,95.40
2018-08-12T03:11:10.113Z,94.90
2018-08-12T03:13:40.449Z,94.90
2018-08-12T03:16:11.688Z,95.00
2018-08-12T03:18:43.030Z,94.60
2018-08-12T03:21:17.922Z,94.20
2018-08-12T03:23:48.683Z,93.60
2018-08-12T03:26:20.199Z,93.10
2018-08-12T03:28:51.475Z,92.90
2018-08-12T03:31:22.685Z,92.70
2018-08-12T03:33:54.321Z,92.70
2018-08-12T03:36:25.924Z,92.40
2018-08-12T03:38:56.940Z,92.30
2018-08-12T03:41:28.022Z,92.10
2018-08-12T03:43:59.374Z,91.90
2018-08-12T03:46:30.347Z,91.90
2018-08-12T03:49:01.555Z,92.10
2018-08-12T03:51:32.231Z,92.20
2018-08-12T03:54:04.981Z,92.30
2018-08-12T03:56:35.709Z,92.60
2018-08-12T03:59:06.936Z,92.10
2018-08-12T04:01:42.862Z,91.80
2018-08-12T04:04:13.508Z,91.70
2018-08-12T04:06:44.948Z,92.00
2018-08-12T04:09:16.119Z,92.10
2018-08-12T04:11:47.264Z,91.90
2018-08-12T04:14:18.631Z,91.20
2018-08-12T04:16:58.427Z,90.60
2018-08-12T04:19:30.896Z,90.80
2018-08-12T04:22:04.194Z,91.00
2018-08-12T04:24:34.804Z,90.90
2018-08-12T04:27:06.878Z,91.00
2018-08-12T04:29:37.994Z,90.60
2018-08-12T04:32:09.770Z,90.50
2018-08-12T04:34:41.472Z,90.40
2018-08-12T04:37:16.116Z,90.50
2018-08-12T04:39:47.443Z,90.50
2018-08-12T04:42:18.324Z,90.10
2018-08-12T04:44:49.428Z,89.70
2018-08-12T04:47:21.000Z,89.70
2018-08-12T04:49:52.400Z,89.60
2018-08-12T04:52:31.211Z,89.70
2018-08-12T04:55:02.609Z,89.80
2018-08-12T04:57:33.718Z,89.40
2018-08-12T05:00:04.996Z,89.30
2018-08-12T05:02:36.078Z,89.10
2018-08-12T05:05:08.394Z,88.60
2018-08-12T05:07:39.408Z,88.10
2018-08-12T05:10:10.800Z,87.70
2018-08-12T05:12:42.349Z,87.30
2018-08-12T05:15:13.811Z,87.00
2018-08-12T05:17:45.237Z,86.50
2018-08-12T05:20:16.816Z,86.40
2018-08-12T05:22:48.547Z,85.60
2018-08-12T05:25:19.586Z,85.30
2018-08-12T05:27:50.530Z,85.40
2018-08-12T05:30:21.906Z,84.40
2018-08-12T05:32:59.416Z,84.50
2018-08-12T05:35:30.455Z,84.10
2018-08-12T05:38:01.861Z,82.60
2018-08-12T05:40:33.106Z,82.10
2018-08-12T05:43:05.468Z,81.10
2018-08-12T05:45:37.657Z,80.60
2018-08-12T05:48:08.987Z,79.70
2018-08-12T05:50:41.021Z,79.20
2018-08-12T05:53:13.584Z,78.60
2018-08-12T05:55:45.258Z,78.40
2018-08-12T05:58:17.174Z,77.50
2018-08-12T06:00:49.530Z,77.40
2018-08-12T06:03:20.879Z,77.00
2018-08-12T06:05:57.252Z,77.30
2018-08-12T06:08:29.932Z,76.40
2018-08-12T06:11:02.312Z,76.30
2018-08-12T06:13:33.594Z,75.40
2018-08-12T06:16:05.629Z,75.70
2018-08-12T06:18:37.883Z,75.00
2018-08-12T06:21:09.811Z,75.00
2018-08-12T06:23:40.781Z,74.90
2018-08-12T06:26:18.431Z,74.50
2018-08-12T06:28:50.165Z,74.40
2018-08-12T06:31:21.375Z,74.80
2018-08-12T06:33:53.535Z,74.90
2018-08-12T06:36:24.654Z,74.40
2018-08-12T06:38:56.821Z,74.00
2018-08-12T06:41:28.989Z,73.80
2018-08-12T06:44:00.645Z,73.70
2018-08-12T06:46:33.734Z,73.30
2018-08-12T06:49:06.378Z,73.40
2018-08-12T06:51:37.450Z,73.30
2018-08-12T06:54:08.854Z,73.30
2018-08-12T06:56:40.246Z,73.00
2018-08-12T06:59:11.947Z,72.20
2018-08-12T07:01:43.446Z,72.10
2018-08-12T07:04:17.678Z,71.50
2018-08-12T07:06:48.931Z,71.30
2018-08-12T07:09:20.895Z,71.90
2018-08-12T07:11:54.915Z,71.10
2018-08-12T07:14:27.349Z,70.60
2018-08-12T07:16:59.712Z,70.80
2018-08-12T07:19:32.690Z,69.80
2018-08-12T07:22:04.885Z,69.20
2018-08-12T07:24:36.518Z,69.50
2018-08-12T07:27:08.323Z,69.80
2018-08-12T07:29:40.075Z,70.10
2018-08-12T07:32:11.436Z,69.70
2018-08-12T07:34:43.316Z,69.20
2018-08-12T07:37:14.109Z,68.80
2018-08-12T07:39:46.238Z,68.30
2018-08-12T07:42:17.903Z,68.40
2018-08-12T07:44:49.059Z,68.60
2018-08-12T07:47:19.919Z,68.60
2018-08-12T07:49:50.791Z,68.60
2018-08-12T07:52:23.357Z,68.60
2018-08-12T07:54:59.298Z,68.50
2018-08-12T07:57:30.483Z,68.60
2018-08-12T08:00:08.088Z,68.70
2018-08-12T08:02:39.043Z,68.20
2018-08-12T08:05:11.624Z,67.60
2018-08-12T08:07:44.339Z,67.60
2018-08-12T08:10:17.796Z,67.20
2018-08-12T08:12:49.079Z,67.20
2018-08-12T08:15:27.228Z,66.80
2018-08-12T08:18:00.525Z,66.80
2018-08-12T08:20:35.346Z,67.00
2018-08-12T08:23:07.965Z,66.60
2018-08-12T08:25:42.538Z,66.20
2018-08-12T08:28:14.629Z,66.00
2018-08-12T08:30:46.390Z,65.50
2018-08-12T08:33:17.994Z,65.50
2018-08-12T08:35:49.890Z,65.00
2018-08-12T08:38:21.652Z,65.30
2018-08-12T08:40:52.834Z,64.40
2018-08-12T08:43:24.147Z,63.90
2018-08-12T08:45:56.323Z,64.60
2018-08-12T08:48:28.469Z,63.50
2018-08-12T08:51:00.807Z,63.40
2018-08-12T08:53:33.978Z,63.20
2018-08-12T08:56:13.382Z,63.20
2018-08-12T08:58:43.779Z,63.30
2018-08-12T09:01:15.801Z,62.90
2018-08-12T09:03:46.771Z,63.20
2018-08-12T09:06:19.496Z,62.40
2018-08-12T09:08:52.939Z,61.90
2018-08-12T09:11:23.546Z,61.10
2018-08-12T09:13:59.100Z,59.70
2018-08-12T09:16:31.173Z,60.00
2018-08-12T09:19:06.194Z,60.30
2018-08-12T09:21:38.051Z,59.70
2018-08-12T09:24:13.188Z,57.70
2018-08-12T09:26:45.225Z,57.10
2018-08-12T09:29:18.242Z,56.90
2018-08-12T09:31:53.311Z,54.10
2018-08-12T09:34:23.806Z,54.90
2018-08-12T09:36:55.015Z,55.40
2018-08-12T09:39:25.728Z,55.50
2018-08-12T09:42:00.676Z,55.00
2018-08-12T09:44:31.442Z,54.50
2018-08-12T09:47:06.053Z,54.30
2018-08-12T09:49:36.996Z,54.30
2018-08-12T09:52:07.902Z,53.70
2018-08-12T09:54:38.650Z,53.20
2018-08-12T09:57:08.982Z,52.60
2018-08-12T09:59:39.281Z,53.40
2018-08-12T10:02:09.648Z,53.00
2018-08-12T10:04:43.794Z,53.30
2018-08-12T10:07:15.504Z,53.40
2018-08-12T10:09:45.391Z,52.80
2018-08-12T10:12:20.819Z,53.40
2018-08-12T10:14:52.546Z,53.30
2018-08-12T10:17:22.579Z,53.30
2018-08-12T10:19:53.255Z,53.60
2018-08-12T10:22:22.657Z,53.40
2018-08-12T10:24:53.266Z,52.70
2018-08-12T10:27:24.494Z,53.40
2018-08-12T10:29:58.682Z,54.10
2018-08-12T10:32:38.055Z,54.10
2018-08-12T10:35:09.665Z,53.80
2018-08-12T10:37:40.821Z,53.80
2018-08-12T10:40:19.240Z,52.70
2018-08-12T10:42:50.852Z,51.70
2018-08-12T10:45:21.496Z,52.60
2018-08-12T10:47:52.353Z,53.60
2018-08-12T10:50:23.943Z,54.50
2018-08-12T10:52:55.018Z,54.70
2018-08-12T10:55:28.181Z,53.60
2018-08-12T10:57:59.056Z,52.50
2018-08-12T11:00:32.935Z,51.90
2018-08-12T11:03:03.666Z,52.60
2018-08-12T11:05:34.645Z,52.10
2018-08-12T11:08:06.574Z,51.80
2018-08-12T11:10:40.221Z,50.90
2018-08-12T11:13:19.986Z,50.70
2018-08-12T11:15:51.411Z,50.50
2018-08-12T11:18:23.951Z,50.20
2018-08-12T11:20:55.102Z,49.90
2018-08-12T11:23:26.663Z,49.60
2018-08-12T11:25:57.336Z,49.30
2018-08-12T11:28:33.289Z,48.90
2018-08-12T11:31:04.402Z,50.00
2018-08-12T11:33:35.807Z,50.10
2018-08-12T11:36:08.863Z,50.40
2018-08-12T11:38:41.255Z,49.90
2018-08-12T11:41:18.607Z,50.50
2018-08-12T11:43:56.783Z,50.30
2018-08-12T11:46:27.894Z,50.30
2018-08-12T11:49:00.196Z,50.40
2018-08-12T11:51:30.464Z,49.70
2018-08-12T11:54:01.127Z,49.70
2018-08-12T11:56:32.153Z,49.60
2018-08-12T11:59:03.713Z,50.00
2018-08-12T12:01:35.541Z,50.10
2018-08-12T12:04:06.361Z,50.20
2018-08-12T12:06:37.820Z,49.60
2018-08-12T12:09:10.992Z,48.80
2018-08-12T12:11:43.242Z,48.00
2018-08-12T12:14:15.537Z,47.80
2018-08-12T12:16:47.022Z,49.20
2018-08-12T12:19:17.710Z,49.60
2018-08-12T12:21:49.732Z,49.40
2018-08-12T12:24:21.323Z,49.30
2018-08-12T12:26:52.384Z,49.90
2018-08-12T12:29:24.192Z,49.30
2018-08-12T12:31:54.994Z,49.10
2018-08-12T12:34:28.403Z,49.40
2018-08-12T12:37:00.357Z,49.70
2018-08-12T12:39:30.927Z,49.60
2018-08-12T12:42:03.448Z,49.10
2018-08-12T12:44:34.624Z,48.30
2018-08-12T12:47:05.376Z,47.90
2018-08-12T12:49:37.310Z,47.70
2018-08-12T12:52:07.399Z,47.70
2018-08-12T12:54:38.947Z,47.80
2018-08-12T12:57:12.396Z,48.00
2018-08-12T12:59:44.310Z,48.00
2018-08-12T13:02:15.198Z,47.00
2018-08-12T13:04:46.674Z,46.00
2018-08-12T13:07:17.358Z,46.60
2018-08-12T13:09:49.676Z,46.30
2018-08-12T13:12:19.634Z,46.20
2018-08-12T13:14:50.145Z,46.60
2018-08-12T13:17:21.322Z,45.90
2018-08-12T13:20:15.114Z,45.40
2018-08-12T13:22:47.791Z,45.20
2018-08-12T13:25:21.865Z,45.00
2018-08-12T13:27:52.981Z,45.80
2018-08-12T13:30:23.187Z,45.10
2018-08-12T13:32:58.672Z,44.90
2018-08-12T13:35:29.110Z,44.30
2018-08-12T13:38:01.149Z,44.30
2018-08-12T13:40:36.916Z,44.50
2018-08-12T13:43:13.502Z,43.60
2018-08-12T13:45:49.946Z,43.80
2018-08-12T13:48:26.784Z,43.50
2018-08-12T13:50:58.512Z,42.80
2018-08-12T13:53:29.877Z,44.10
2018-08-12T13:56:00.579Z,44.60
2018-08-12T13:58:33.285Z,44.70
2018-08-12T14:01:08.232Z,44.60
2018-08-12T14:03:41.235Z,44.60
2018-08-12T14:06:15.303Z,44.60
2018-08-12T14:08:46.929Z,44.40
2018-08-12T14:16:31.590Z,43.90
2018-08-12T14:19:02.705Z,43.70
2018-08-12T14:21:34.550Z,43.40
2018-08-12T14:24:09.352Z,43.20
2018-08-12T14:26:39.889Z,42.70
2018-08-12T14:29:14.594Z,42.60
2018-08-12T14:31:46.024Z,42.80
2018-08-12T14:34:16.406Z,42.20
2018-08-12T14:36:49.875Z,42.10
2018-08-12T14:39:21.240Z,42.10
2018-08-12T14:41:52.643Z,42.20
2018-08-12T14:44:23.920Z,42.90
2018-08-12T14:46:55.335Z,42.40
2018-08-12T14:49:27.273Z,42.80
2018-08-12T14:51:58.633Z,43.80
2018-08-12T14:54:31.292Z,44.10
2018-08-12T14:57:02.179Z,43.60
2018-08-12T14:59:34.148Z,43.70
2018-08-12T15:02:04.962Z,43.30
2018-08-12T15:04:36.004Z,43.20
2018-08-12T15:07:06.683Z,42.40
2018-08-12T15:09:43.290Z,43.00
2018-08-12T15:12:13.874Z,42.40
2018-08-12T15:14:44.225Z,42.80
2018-08-12T15:17:20.179Z,42.90
2018-08-12T15:19:50.683Z,43.00
2018-08-12T15:22:27.448Z,43.40
2018-08-12T15:24:58.073Z,43.70
2018-08-12T15:27:29.781Z,43.60
2018-08-12T15:30:00.992Z,42.70
2018-08-12T15:32:32.316Z,42.60
2018-08-12T15:35:03.304Z,42.60
2018-08-12T15:37:33.554Z,42.40
2018-08-12T15:40:03.476Z,41.90
2018-08-12T15:42:33.316Z,42.20
2018-08-12T15:45:05.344Z,42.20
2018-08-12T15:47:40.833Z,42.40
2018-08-12T15:50:12.593Z,42.60
2018-08-12T15:52:48.074Z,42.90
2018-08-12T15:55:18.846Z,42.80
2018-08-12T15:57:49.655Z,43.20
2018-08-12T16:00:21.475Z,43.50
2018-08-12T16:02:53.087Z,43.30
2018-08-12T16:05:23.963Z,42.90
2018-08-12T16:07:54.128Z,43.20
2018-08-12T16:10:33.497Z,42.80
2018-08-12T16:13:08.695Z,42.40
2018-08-12T16:15:38.818Z,41.80
2018-08-12T16:18:13.901Z,41.60
2018-08-12T16:20:44.686Z,41.20
2018-08-12T16:23:18.683Z,41.00
2018-08-12T16:25:56.226Z,41.20
2018-08-12T16:28:26.238Z,41.00
2018-08-12T16:30:57.051Z,41.20
2018-08-12T16:33:31.215Z,41.10
2018-08-12T16:36:01.511Z,41.00
2018-08-12T16:38:32.255Z,40.40
2018-08-12T16:41:07.673Z,40.70
2018-08-12T16:43:38.619Z,41.00
2018-08-12T16:46:09.700Z,40.90
2018-08-12T16:48:40.193Z,41.20
2018-08-12T16:51:10.589Z,41.60
2018-08-12T16:53:41.165Z,41.80
2018-08-12T16:56:12.509Z,41.60
2018-08-12T16:58:44.016Z,41.60
2018-08-12T17:01:14.758Z,41.90
2018-08-12T17:03:45.738Z,42.20
2018-08-12T17:06:19.600Z,42.20
2018-08-12T17:08:50.355Z,42.40
2018-08-12T17:11:21.156Z,42.60
2018-08-12T17:13:52.991Z,43.20
2018-08-12T17:16:22.674Z,43.80
2018-08-12T17:18:54.328Z,44.50
2018-08-12T17:21:25.468Z,45.00
2018-08-12T17:24:00.943Z,45.40
2018-08-12T17:26:36.313Z,45.70
2018-08-12T17:29:07.117Z,46.40
2018-08-12T17:31:39.515Z,46.90
2018-08-12T17:34:10.971Z,47.40
2018-08-12T17:36:41.471Z,47.80
2018-08-12T17:39:13.841Z,48.20
2018-08-12T17:41:52.523Z,48.30
2018-08-12T17:44:24.819Z,48.90
2018-08-12T17:47:02.450Z,49.20
2018-08-12T17:49:33.914Z,49.30
2018-08-12T17:52:04.641Z,49.60
2018-08-12T17:54:35.819Z,50.20
2018-08-12T17:57:06.623Z,50.30
2018-08-12T17:59:42.614Z,50.80
2018-08-12T18:02:13.936Z,51.20
2018-08-12T18:04:44.528Z,51.70
2018-08-12T18:07:14.824Z,51.80
2018-08-12T18:09:45.930Z,51.90
2018-08-12T18:12:20.599Z,52.00
2018-08-12T18:14:52.615Z,52.20
2018-08-12T18:17:23.366Z,52.50
2018-08-12T18:19:53.994Z,52.80
2018-08-12T18:22:24.617Z,53.30
2018-08-12T18:24:55.800Z,53.40
2018-08-12T18:27:26.904Z,53.70
2018-08-12T18:29:57.754Z,54.10
2018-08-12T18:32:30.041Z,54.30
2018-08-12T18:35:01.421Z,54.50
2018-08-12T18:37:36.211Z,54.70
2018-08-12T18:40:08.216Z,55.10
2018-08-12T18:42:39.896Z,55.40
2018-08-12T18:45:13.466Z,55.70
2018-08-12T18:47:43.939Z,56.20
2018-08-12T18:50:13.765Z,56.40
2018-08-12T18:52:45.683Z,57.00
2018-08-12T18:55:16.127Z,57.40
2018-08-12T18:57:47.113Z,57.90
2018-08-12T19:00:17.379Z,58.70
2018-08-12T19:02:47.341Z,59.10
2018-08-12T19:05:18.605Z,59.50
2018-08-12T19:10:29.240Z,61.00
2018-08-12T19:13:00.625Z,61.30
2018-08-12T19:15:34.668Z,60.90
2018-08-12T19:18:05.853Z,61.20
2018-08-12T19:20:37.580Z,61.60
2018-08-12T19:23:09.606Z,61.80
2018-08-12T19:25:41.662Z,62.00
2018-08-12T19:28:13.403Z,61.70
2018-08-12T19:30:43.893Z,61.70
2018-08-12T19:33:14.719Z,62.20
2018-08-12T19:35:48.740Z,62.30
2018-08-12T19:38:24.543Z,62.40
2018-08-12T19:43:36.067Z,62.90
2018-08-12T19:46:07.485Z,63.20
2018-08-12T19:48:39.696Z,63.40
2018-08-12T19:51:13.207Z,63.70
2018-08-12T19:53:43.924Z,63.90
2018-08-12T19:56:15.400Z,64.30
2018-08-12T19:58:45.708Z,64.40
2018-08-12T20:01:16.493Z,64.50
2018-08-12T20:03:49.698Z,64.90
2018-08-12T20:06:22.961Z,65.40
2018-08-12T20:08:53.994Z,65.40
2018-08-12T20:11:25.687Z,65.90
2018-08-12T20:13:56.866Z,66.20
2018-08-12T20:16:29.005Z,66.20
2018-08-12T20:18:59.715Z,66.50
2018-08-12T20:21:30.624Z,66.70
2018-08-12T20:24:05.813Z,66.60
2018-08-12T20:26:36.583Z,67.10
2018-08-12T20:29:09.301Z,67.90
2018-08-12T20:31:42.497Z,68.10
2018-08-12T20:34:14.192Z,68.50
2018-08-12T20:36:46.040Z,68.50
2018-08-12T20:39:16.897Z,69.00
2018-08-12T20:41:48.208Z,69.00
2018-08-12T20:44:19.371Z,69.80
2018-08-12T20:46:50.659Z,70.30
2018-08-12T20:49:21.207Z,70.00
2018-08-12T20:51:50.343Z,70.80
2018-08-12T20:54:20.809Z,71.50
2018-08-12T20:56:50.255Z,72.20
2018-08-12T20:59:21.688Z,72.90
2018-08-12T21:01:53.622Z,73.30
2018-08-12T21:04:28.936Z,73.40
2018-08-12T21:06:59.870Z,73.80
2018-08-12T21:09:30.867Z,73.50
2018-08-12T21:12:01.739Z,73.80
2018-08-12T21:14:35.435Z,73.90
2018-08-12T21:17:06.541Z,74.10
2018-08-12T21:19:37.210Z,74.60
2018-08-12T21:22:07.368Z,75.00
2018-08-12T21:24:38.164Z,75.10
2018-08-12T21:27:08.972Z,75.00
2018-08-12T21:29:39.822Z,75.60
2018-08-12T21:32:10.649Z,75.60
2018-08-12T21:34:41.077Z,75.40
2018-08-12T21:37:12.148Z,75.20
2018-08-12T21:39:43.207Z,75.00
2018-08-12T21:42:13.376Z,75.20
2018-08-12T21:44:44.943Z,75.60
2018-08-12T21:47:17.052Z,76.50
2018-08-12T21:49:49.532Z,76.10
2018-08-12T21:52:21.740Z,75.10
2018-08-12T21:54:58.993Z,75.00
2018-08-12T21:57:30.127Z,75.40
2018-08-12T22:00:01.779Z,75.70
2018-08-12T22:02:30.974Z,75.90
2018-08-12T22:05:02.930Z,76.60
2018-08-12T22:07:32.464Z,76.30
2018-08-12T22:10:04.382Z,76.30
2018-08-12T22:12:36.060Z,76.20
2018-08-12T22:15:11.457Z,76.60
2018-08-12T22:17:43.767Z,76.70
2018-08-12T22:20:16.538Z,76.00
2018-08-12T22:22:48.782Z,76.70
2018-08-12T22:25:20.538Z,77.00
2018-08-12T22:27:52.971Z,77.20
2018-08-12T22:30:24.280Z,77.50
2018-08-12T22:32:56.105Z,77.30
2018-08-12T22:35:34.394Z,77.50
2018-08-12T22:38:06.531Z,76.60
2018-08-12T22:40:37.982Z,77.20
2018-08-12T22:43:10.079Z,77.70
2018-08-12T22:45:42.859Z,78.30
2018-08-12T22:48:12.043Z,78.40
2018-08-12T22:50:51.688Z,78.50
2018-08-12T22:53:23.486Z,77.90
2018-08-12T22:55:53.194Z,77.30
2018-08-12T22:58:32.164Z,76.30
2018-08-12T23:01:03.742Z,77.40
2018-08-12T23:03:39.099Z,76.70
2018-08-12T23:06:10.835Z,77.40
2018-08-12T23:08:42.715Z,77.50
2018-08-12T23:11:17.852Z,78.30
2018-08-12T23:13:49.561Z,77.80
2018-08-12T23:16:31.727Z,77.20
2018-08-12T23:19:02.824Z,76.80
2018-08-12T23:21:34.541Z,76.30
2018-08-12T23:24:06.459Z,75.70
2018-08-12T23:26:38.339Z,76.50
2018-08-12T23:29:09.858Z,76.00
2018-08-12T23:31:44.619Z,75.40
2018-08-12T23:34:16.099Z,75.70
2018-08-12T23:36:47.410Z,75.60
2018-08-12T23:39:18.561Z,74.90
2018-08-12T23:41:49.604Z,75.10
2018-08-12T23:44:21.854Z,75.10
2018-08-12T23:46:53.378Z,75.30
2018-08-12T23:49:25.360Z,75.40
2018-08-12T23:52:00.999Z,76.00
2018-08-12T23:54:32.486Z,76.10
2018-08-12T23:57:04.648Z,76.30
2018-08-12T23:59:36.164Z,76.60
